Homes, New York
Current Conditions -  °F | °C
As of 6:53 PM on Monday 20 Oct 2014 (Local Time) from KPOU Reporting Station
Clear Clear  
Wind Chill: 54°   Ceiling: Unl
Heat Index: 54°   Visibility: 10mi
Dew Point: 35°   Wind: 0mph
Humidity: 49%   Direction: NA
Pressure: 29.97"   Gusts: NA
Location:  41.5306°N, 73.6674°W
Report Text: KPOU 202253Z 00000KT 10SM CLR 12/02 A2997 RMK AO2 SLP147 T01220017
Loading
Personal Weather Stations






























Interactive Weather Map
Tropical Storm Tracking
New forecast layout! Learn more

10-Day Weather Forecast

Advertisements
Track Severe Weather on mobile